Time;durP1;ratioP1;P1;durP2;ratioP2;P2;SDS_P1;SDS_P2;PMS_P1;PMS_P2;Temp;Humidity;BMP_temperature;BMP_pressure;BME280_temperature;BME280_humidity;BME280_pressure;Samples;Min_cycle;Max_cycle;Signal;HPM_P1;HPM_P2
2021/04/09 00:00:12;;;;;;;36.28;16.77;;;128.70;1484.80;;;;;;5073578;28;20025;-70
2021/04/09 00:02:38;;;;;;;37.45;18.20;;;128.60;1484.80;;;;;;5073289;28;20029;-69
2021/04/09 00:05:06;;;;;;;55.13;20.92;;;128.60;1484.80;;;;;;5073336;28;20028;-70
2021/04/09 00:07:32;;;;;;;47.25;23.65;;;128.60;1484.80;;;;;;5073358;28;20197;-69
2021/04/09 00:09:58;;;;;;;51.20;25.20;;;128.50;1510.40;;;;;;5073276;28;20493;-69
2021/04/09 00:12:23;;;;;;;41.72;22.75;;;128.50;1510.40;;;;;;5073181;28;20466;-69
2021/04/09 00:14:49;;;;;;;44.22;21.63;;;128.50;1510.40;;;;;;5073194;28;20033;-68
2021/04/09 00:17:15;;;;;;;44.08;19.77;;;128.50;1510.40;;;;;;5073048;28;20029;-68
2021/04/09 00:19:40;;;;;;;44.00;19.63;;;128.40;1510.40;;;;;;5072898;28;20033;-69
2021/04/09 00:22:06;;;;;;;35.72;20.70;;;128.40;1510.40;;;;;;5072979;28;20519;-68
2021/04/09 00:24:32;;;;;;;52.00;22.13;;;128.40;1510.40;;;;;;5072825;28;20112;-68
2021/04/09 00:26:58;;;;;;;51.75;22.58;;;128.40;1510.40;;;;;;5073233;28;20119;-68
2021/04/09 00:29:25;;;;;;;46.58;23.27;;;128.30;1510.40;;;;;;5073294;28;20082;-68
2021/04/09 00:31:51;;;;;;;49.78;23.55;;;128.30;1510.40;;;;;;5073133;28;20029;-69
2021/04/09 00:34:16;;;;;;;53.00;26.50;;;128.20;1510.40;;;;;;5074289;28;20413;-69
2021/04/09 00:36:42;;;;;;;51.50;26.02;;;128.20;1510.40;;;;;;5074799;28;20490;-69
2021/04/09 00:39:09;;;;;;;60.90;26.48;;;128.20;1536.00;;;;;;5075996;28;20025;-70
2021/04/09 00:41:39;;;;;;;50.60;26.67;;;128.20;1536.00;;;;;;5076213;28;20040;-69
2021/04/09 00:44:09;;;;;;;57.25;27.17;;;128.20;1536.00;;;;;;5076313;28;20417;-69
2021/04/09 00:46:36;;;;;;;61.63;29.55;;;128.10;1536.00;;;;;;5076268;28;20134;-69
2021/04/09 00:49:02;;;;;;;73.45;33.17;;;128.10;1536.00;;;;;;5076426;28;20028;-69
2021/04/09 00:51:28;;;;;;;58.05;30.23;;;128.00;1536.00;;;;;;5076476;28;20095;-69
2021/04/09 00:53:55;;;;;;;62.05;29.70;;;128.00;1536.00;;;;;;5076420;28;20519;-69
2021/04/09 00:56:26;;;;;;;57.00;30.13;;;128.00;1561.60;;;;;;5076213;28;20017;-69
2021/04/09 00:58:54;;;;;;;61.22;28.05;;;128.00;1561.60;;;;;;5076210;28;20032;-69
2021/04/09 01:01:19;;;;;;;54.33;28.42;;;128.00;1561.60;;;;;;5076178;28;20024;-69
2021/04/09 01:03:45;;;;;;;48.47;26.30;;;128.00;1561.60;;;;;;5076396;28;20078;-68
2021/04/09 01:06:12;;;;;;;52.63;26.48;;;103.30;1536.00;;;;;;5076069;28;20044;-68
2021/04/09 01:08:38;;;;;;;61.63;29.38;;;103.30;1536.00;;;;;;5075996;28;20035;-69
2021/04/09 01:11:05;;;;;;;60.15;30.58;;;103.30;1536.00;;;;;;5075834;28;20111;-69
2021/04/09 01:13:31;;;;;;;59.35;30.27;;;103.30;1536.00;;;;;;5075518;28;20466;-69
2021/04/09 01:15:58;;;;;;;53.58;28.33;;;103.30;1536.00;;;;;;5075662;28;20028;-69
2021/04/09 01:18:41;;;;;;;59.85;29.88;;;103.30;1536.00;;;;;;5075766;28;20207;-69
2021/04/09 01:21:25;;;;;;;58.55;29.63;;;103.30;1536.00;;;;;;5075582;28;20028;-69
2021/04/09 01:24:15;;;;;;;50.53;27.40;;;103.20;1536.00;;;;;;5075689;28;20420;-69
2021/04/09 01:26:59;;;;;;;58.95;29.20;;;103.20;1536.00;;;;;;5075296;28;20036;-70
2021/04/09 01:29:40;;;;;;;58.15;28.00;;;103.20;1536.00;;;;;;5075665;28;20354;-69
2021/04/09 01:32:10;;;;;;;56.28;29.08;;;103.20;1536.00;;;;;;5075448;28;20016;-70
2021/04/09 01:34:41;;;;;;;54.25;30.05;;;103.20;1536.00;;;;;;5075548;28;20036;-69
2021/04/09 01:37:29;;;;;;;53.38;27.75;;;103.10;1536.00;;;;;;5075125;28;20524;-69
2021/04/09 01:40:11;;;;;;;55.88;27.38;;;103.10;1536.00;;;;;;5075057;28;20542;-69
2021/04/09 01:42:39;;;;;;;57.63;28.95;;;103.10;1536.00;;;;;;5075274;28;20108;-69
2021/04/09 01:45:06;;;;;;;48.28;26.73;;;103.10;1536.00;;;;;;5074767;28;20029;-69
2021/04/09 01:47:33;;;;;;;45.72;25.38;;;103.10;1536.00;;;;;;5074610;28;20025;-69
2021/04/09 01:50:02;;;;;;;48.70;26.30;;;103.10;1536.00;;;;;;5075150;28;20022;-69
2021/04/09 01:52:32;;;;;;;45.63;25.30;;;103.10;1536.00;;;;;;5075330;28;20021;-69
2021/04/09 01:55:00;;;;;;;46.72;25.27;;;103.00;1561.60;;;;;;5075091;28;20024;-69
2021/04/09 01:57:27;;;;;;;40.50;23.42;;;103.00;1561.60;;;;;;5074914;28;20046;-69
2021/04/09 01:59:54;;;;;;;46.00;23.73;;;103.00;1536.00;;;;;;5074888;28;20028;-69
2021/04/09 02:02:21;;;;;;;45.13;24.27;;;103.00;1536.00;;;;;;5074939;28;20020;-69
2021/04/09 02:04:48;;;;;;;46.53;24.73;;;103.00;1536.00;;;;;;5074676;28;20108;-69
2021/04/09 02:07:20;;;;;;;46.47;23.98;;;103.00;1536.00;;;;;;5074469;28;20047;-69
2021/04/09 02:09:48;;;;;;;46.60;25.60;;;103.00;1536.00;;;;;;5074800;28;20074;-69
2021/04/09 02:12:16;;;;;;;47.15;26.67;;;103.00;1536.00;;;;;;5074465;28;20048;-69
2021/04/09 02:14:44;;;;;;;47.03;28.05;;;103.00;1536.00;;;;;;5074628;28;20025;-69
2021/04/09 02:17:11;;;;;;;56.88;29.38;;;103.00;1536.00;;;;;;5074806;28;20024;-69
2021/04/09 02:19:41;;;;;;;53.42;27.40;;;102.90;1561.60;;;;;;5074527;28;20033;-68
2021/04/09 02:22:09;;;;;;;53.40;28.13;;;102.90;1561.60;;;;;;5074365;28;20029;-68
2021/04/09 02:24:35;;;;;;;47.70;25.63;;;102.90;1561.60;;;;;;5074578;28;20024;-68
2021/04/09 02:27:02;;;;;;;56.17;28.08;;;102.90;1561.60;;;;;;5073837;28;20474;-68
2021/04/09 02:29:28;;;;;;;45.30;25.38;;;102.90;1561.60;;;;;;5074443;28;20101;-67
2021/04/09 02:31:54;;;;;;;50.88;25.80;;;102.90;1561.60;;;;;;5074381;28;20728;-68
2021/04/09 02:34:21;;;;;;;48.60;25.83;;;102.80;1561.60;;;;;;5074376;28;20029;-68
2021/04/09 02:36:47;;;;;;;43.83;25.35;;;102.80;1561.60;;;;;;5073885;28;20394;-68
2021/04/09 02:39:34;;;;;;;47.72;25.05;;;102.80;1561.60;;;;;;5074073;28;20044;-68
2021/04/09 02:42:05;;;;;;;45.45;24.50;;;102.80;1561.60;;;;;;5074081;28;20036;-67
2021/04/09 02:44:30;;;;;;;51.28;25.65;;;102.80;1561.60;;;;;;5074131;28;20023;-69
2021/04/09 02:47:07;;;;;;;47.33;25.30;;;102.70;1561.60;;;;;;5074337;28;20040;-70
2021/04/09 02:49:42;;;;;;;47.45;25.23;;;102.70;1587.20;;;;;;5074170;28;20032;-68
2021/04/09 02:52:34;;;;;;;47.45;24.77;;;102.70;1561.60;;;;;;5072962;28;20025;-70
2021/04/09 02:55:07;;;;;;;54.42;27.65;;;102.70;1561.60;;;;;;5074011;28;20036;-69
2021/04/09 02:57:35;;;;;;;55.47;28.73;;;102.70;1561.60;;;;;;5073912;28;20051;-68
2021/04/09 03:00:05;;;;;;;50.83;27.38;;;102.70;1561.60;;;;;;5073984;28;20315;-69
2021/04/09 03:02:33;;;;;;;65.38;29.25;;;102.70;1561.60;;;;;;5073001;28;20082;-69
2021/04/09 03:05:00;;;;;;;58.35;28.33;;;102.60;1561.60;;;;;;5073941;28;20028;-69
2021/04/09 03:07:26;;;;;;;53.80;29.42;;;102.60;1561.60;;;;;;5073635;28;20032;-68
2021/04/09 03:09:51;;;;;;;58.63;30.15;;;102.60;1587.20;;;;;;5073693;28;20108;-69
2021/04/09 03:12:19;;;;;;;63.10;30.08;;;102.60;1587.20;;;;;;5073498;28;20052;-69
2021/04/09 03:14:51;;;;;;;53.63;28.00;;;102.60;1587.20;;;;;;5073844;28;20078;-69
2021/04/09 03:17:26;;;;;;;48.55;26.70;;;102.60;1587.20;;;;;;5073757;28;20047;-67
2021/04/09 03:19:51;;;;;;;60.88;29.67;;;102.50;1587.20;;;;;;5073762;28;20120;-69
2021/04/09 03:22:17;;;;;;;63.00;29.77;;;102.50;1587.20;;;;;;5073683;28;20502;-66
2021/04/09 03:24:43;;;;;;;57.67;30.33;;;102.60;1587.20;;;;;;5073677;28;20021;-69
2021/04/09 03:27:09;;;;;;;61.33;29.85;;;102.50;1587.20;;;;;;5073381;28;20032;-70
2021/04/09 03:29:35;;;;;;;63.42;31.35;;;102.50;1587.20;;;;;;5073624;28;20029;-68
2021/04/09 03:32:02;;;;;;;62.95;31.60;;;102.50;1587.20;;;;;;5073569;28;20070;-69
2021/04/09 03:34:28;;;;;;;69.10;29.60;;;102.50;1587.20;;;;;;5072642;28;20090;-68
2021/04/09 03:36:53;;;;;;;62.80;31.38;;;102.50;1587.20;;;;;;5073338;28;20068;-69
2021/04/09 03:39:19;;;;;;;69.65;31.73;;;102.50;1587.20;;;;;;5073594;28;20370;-68
2021/04/09 03:41:45;;;;;;;67.82;34.15;;;102.50;1587.20;;;;;;5073316;28;20032;-68
2021/04/09 03:44:11;;;;;;;65.38;33.03;;;102.50;1587.20;;;;;;5073373;28;20042;-68
2021/04/09 03:46:36;;;;;;;75.30;35.55;;;102.50;1587.20;;;;;;5073473;28;20423;-68
2021/04/09 03:49:02;;;;;;;73.32;33.95;;;102.50;1587.20;;;;;;5073451;28;20042;-68
2021/04/09 03:51:30;;;;;;;66.38;32.25;;;102.50;1587.20;;;;;;5073533;28;20480;-68
2021/04/09 03:53:57;;;;;;;74.10;34.45;;;102.40;1587.20;;;;;;5073022;28;20025;-68
2021/04/09 03:56:22;;;;;;;79.95;37.58;;;102.40;1587.20;;;;;;5072989;28;20108;-69
2021/04/09 03:58:48;;;;;;;80.03;38.75;;;102.40;1587.20;;;;;;5073353;28;20147;-68
2021/04/09 04:01:14;;;;;;;86.57;39.45;;;102.40;1587.20;;;;;;5073303;28;20028;-69
2021/04/09 04:03:39;;;;;;;88.15;38.40;;;102.40;1587.20;;;;;;5073384;28;20070;-69
2021/04/09 04:06:05;;;;;;;74.10;36.03;;;102.40;1612.80;;;;;;5073270;28;20098;-68
2021/04/09 04:08:31;;;;;;;75.65;33.70;;;102.40;1612.80;;;;;;5073204;28;20379;-68
2021/04/09 04:10:56;;;;;;;74.70;35.20;;;102.40;1587.20;;;;;;5076787;28;20050;-69
2021/04/09 04:13:23;;;;;;;76.00;38.50;;;102.40;1612.80;;;;;;5077076;28;20035;-69
2021/04/09 04:15:49;;;;;;;74.47;38.67;;;102.40;1612.80;;;;;;5076721;28;20111;-70
2021/04/09 04:18:14;;;;;;;97.07;43.35;;;102.40;1638.40;;;;;;5076749;28;20120;-69
2021/04/09 04:20:40;;;;;;;87.72;43.65;;;102.40;1638.40;;;;;;5076348;28;20044;-68
2021/04/09 04:23:06;;;;;;;89.97;42.72;;;77.70;1612.80;;;;;;5076825;28;20028;-68
2021/04/09 04:25:32;;;;;;;83.57;41.65;;;77.70;1612.80;;;;;;5076542;28;20025;-69
2021/04/09 04:27:57;;;;;;;83.85;43.20;;;77.70;1612.80;;;;;;5076731;28;20366;-69
2021/04/09 04:30:23;;;;;;;78.50;40.88;;;77.70;1612.80;;;;;;5076503;28;20025;-68
2021/04/09 04:32:49;;;;;;;80.57;42.05;;;102.40;1612.80;;;;;;5076412;28;20021;-68
2021/04/09 04:35:15;;;;;;;87.88;42.47;;;102.40;1612.80;;;;;;5076503;28;20035;-68
2021/04/09 04:37:41;;;;;;;89.70;41.95;;;102.40;1638.40;;;;;;5076342;28;20068;-68
2021/04/09 04:40:07;;;;;;;85.57;43.83;;;102.40;1638.40;;;;;;5075302;28;20053;-69
2021/04/09 04:42:33;;;;;;;90.88;44.63;;;102.40;1638.40;;;;;;5076461;28;20393;-70
2021/04/09 04:44:59;;;;;;;103.03;49.10;;;102.40;1664.00;;;;;;5076157;28;20099;-70
2021/04/09 04:47:25;;;;;;;94.53;47.45;;;102.40;1664.00;;;;;;5076256;28;20064;-70
2021/04/09 04:49:50;;;;;;;107.93;50.72;;;102.40;1664.00;;;;;;5075945;28;20025;-70
2021/04/09 04:52:16;;;;;;;103.50;52.20;;;102.40;1664.00;;;;;;5076296;28;20020;-69
2021/04/09 04:54:42;;;;;;;106.25;54.88;;;102.50;1664.00;;;;;;5076401;28;20115;-72
2021/04/09 04:57:07;;;;;;;131.32;62.00;;;102.50;1664.00;;;;;;5075743;28;20099;-70
2021/04/09 04:59:33;;;;;;;133.60;62.75;;;102.50;1664.00;;;;;;5075857;28;20108;-68
2021/04/09 05:01:59;;;;;;;137.38;66.35;;;102.60;1664.00;;;;;;5076237;28;20028;-69
2021/04/09 05:04:24;;;;;;;139.90;72.43;;;102.60;1664.00;;;;;;5076087;28;20386;-69
2021/04/09 05:06:50;;;;;;;143.52;72.65;;;102.60;1664.00;;;;;;5074672;28;20039;-67
2021/04/09 05:09:16;;;;;;;155.90;75.80;;;102.70;1689.60;;;;;;5075928;28;20027;-68
2021/04/09 05:11:42;;;;;;;161.32;76.90;;;102.80;1689.60;;;;;;5075629;28;20142;-67
2021/04/09 05:14:07;;;;;;;168.45;78.35;;;102.80;1689.60;;;;;;5075680;28;20021;-67
2021/04/09 05:16:33;;;;;;;163.02;80.20;;;102.90;1689.60;;;;;;5075810;28;20024;-68
2021/04/09 05:18:59;;;;;;;167.80;83.32;;;103.00;1689.60;;;;;;5075770;28;20527;-68
2021/04/09 05:21:26;;;;;;;173.07;87.38;;;103.10;1689.60;;;;;;5074646;28;20045;-69
2021/04/09 05:23:52;;;;;;;165.20;78.30;;;103.10;1715.20;;;;;;5075780;28;20021;-68
2021/04/09 05:26:18;;;;;;;163.45;72.85;;;103.10;1740.80;;;;;;5075339;28;20393;-68
2021/04/09 05:28:44;;;;;;;142.25;68.93;;;103.20;1740.80;;;;;;5075476;28;20070;-68
2021/04/09 05:31:10;;;;;;;135.25;62.10;;;103.20;1715.20;;;;;;5075595;28;20126;-68
2021/04/09 05:33:35;;;;;;;119.13;55.03;;;103.30;1740.80;;;;;;5075543;28;20552;-68
2021/04/09 05:36:02;;;;;;;114.95;56.22;;;128.00;1740.80;;;;;;5075170;28;20123;-67
2021/04/09 05:38:28;;;;;;;88.75;45.63;;;128.10;1740.80;;;;;;5075151;28;20025;-67
2021/04/09 05:40:53;;;;;;;100.68;43.78;;;128.20;1766.40;;;;;;5075257;28;20031;-67
2021/04/09 05:43:19;;;;;;;99.28;44.03;;;128.30;1740.80;;;;;;5074848;28;20104;-68
2021/04/09 05:45:45;;;;;;;96.28;42.20;;;128.40;1740.80;;;;;;5075197;28;20039;-66
2021/04/09 05:48:17;;;;;;;97.13;44.33;;;128.60;1715.20;;;;;;5075322;28;20375;-66
2021/04/09 05:50:43;;;;;;;87.30;38.17;;;128.70;1715.20;;;;;;5073773;28;20089;-70
2021/04/09 05:53:09;;;;;;;80.28;35.40;;;128.80;1715.20;;;;;;5075203;28;20111;-72
2021/04/09 05:55:35;;;;;;;83.07;38.50;;;153.60;1689.60;;;;;;5075043;28;20040;-72
2021/04/09 05:58:00;;;;;;;86.93;37.53;;;153.70;1689.60;;;;;;5074699;28;20032;-72
2021/04/09 06:00:26;;;;;;;95.43;37.60;;;153.80;1664.00;;;;;;5075121;28;20025;-73
2021/04/09 06:02:55;;;;;;;77.80;34.22;;;154.00;1664.00;;;;;;5074977;28;20375;-70
2021/04/09 06:05:21;;;;;;;61.10;29.77;;;154.10;1664.00;;;;;;5074868;28;20033;-71
2021/04/09 06:07:46;;;;;;;66.20;30.02;;;154.30;1689.60;;;;;;5074754;28;20532;-72
2021/04/09 06:10:13;;;;;;;53.13;26.45;;;154.40;1664.00;;;;;;5074757;28;20040;-70
2021/04/09 06:12:39;;;;;;;69.13;26.83;;;154.50;1638.40;;;;;;5073955;28;20029;-70
2021/04/09 06:15:09;;;;;;;62.55;26.40;;;179.30;1612.80;;;;;;5074702;28;20052;-75
2021/04/09 06:17:35;;;;;;;62.75;28.83;;;179.50;1612.80;;;;;;5074480;28;20062;-71
2021/04/09 06:20:02;;;;;;;79.15;33.83;;;179.60;1587.20;;;;;;5074577;28;20463;-73
2021/04/09 06:22:27;;;;;;;93.88;43.80;;;179.80;1587.20;;;;;;5074793;28;20017;-71
2021/04/09 06:24:53;;;;;;;103.25;48.67;;;179.90;1561.60;;;;;;5074686;28;20116;-74
2021/04/09 06:27:19;;;;;;;103.75;51.67;;;180.10;1561.60;;;;;;5074200;28;20050;-74
2021/04/09 06:29:44;;;;;;;76.85;34.53;;;204.80;1536.00;;;;;;5074294;28;20474;-70
2021/04/09 06:32:10;;;;;;;50.47;25.08;;;204.90;1510.40;;;;;;5074306;28;20506;-73
2021/04/09 06:34:36;;;;;;;28.98;16.58;;;205.00;1459.20;;;;;;5074316;28;20477;-70
2021/04/09 06:37:02;;;;;;;23.15;12.77;;;205.20;1459.20;;;;;;5073813;28;20398;-70
2021/04/09 06:39:28;;;;;;;23.33;10.10;;;205.30;1433.60;;;;;;5074252;28;20021;-71
2021/04/09 06:41:54;;;;;;;28.67;10.30;;;205.50;1433.60;;;;;;5073933;28;20029;-71
2021/04/09 06:44:20;;;;;;;62.00;12.40;;;205.60;1408.00;;;;;;5074340;28;20047;-71
2021/04/09 06:46:46;;;;;;;123.65;16.42;;;230.40;1408.00;;;;;;5073038;28;20040;-68
2021/04/09 06:49:12;;;;;;;35.72;6.57;;;230.60;1382.40;;;;;;5074011;28;20020;-68
2021/04/09 06:51:44;;;;;;;134.57;14.23;;;230.80;1356.80;;;;;;5073970;28;20035;-69
2021/04/09 06:54:11;;;;;;;160.32;18.08;;;231.00;1331.20;;;;;;5074167;28;20351;-64
2021/04/09 06:56:38;;;;;;;180.13;16.08;;;231.20;1356.80;;;;;;5073840;28;20421;-68
2021/04/09 06:59:11;;;;;;;134.93;14.10;;;256.00;1356.80;;;;;;5073902;28;20024;-63
2021/04/09 07:01:39;;;;;;;360.73;32.03;;;256.20;1331.20;;;;;;5074121;28;20031;-64
2021/04/09 07:04:06;;;;;;;236.73;23.13;;;256.40;1331.20;;;;;;5074062;28;20021;-67
2021/04/09 07:06:31;;;;;;;186.40;19.58;;;256.60;1331.20;;;;;;5073834;28;20484;-71
2021/04/09 07:08:57;;;;;;;244.57;24.42;;;256.90;1305.60;;;;;;5073610;28;20021;-68
2021/04/09 07:11:23;;;;;;;102.40;14.10;;;281.70;1305.60;;;;;;5073700;28;20077;-69
2021/04/09 07:13:50;;;;;;;130.38;12.73;;;281.80;1254.40;;;;;;5073788;28;20032;-67
2021/04/09 07:16:16;;;;;;;41.25;7.50;;;282.00;1203.20;;;;;;5073539;28;20025;-72
2021/04/09 07:18:57;;;;;;;23.95;7.05;;;282.20;1177.60;;;;;;5073817;28;20031;-71
2021/04/09 07:21:24;;;;;;;12.25;6.55;;;282.30;1177.60;;;;;;5073553;28;20115;-74
2021/04/09 07:24:13;;;;;;;15.82;6.80;;;282.40;1152.00;;;;;;5073423;28;20029;-72
2021/04/09 07:26:44;;;;;;;11.52;7.30;;;282.50;1126.40;;;;;;5073630;28;20036;-72
2021/04/09 07:29:34;;;;;;;10.57;6.35;;;307.30;1126.40;;;;;;5073298;28;20024;-68
2021/04/09 07:32:09;;;;;;;11.45;5.05;;;307.40;1100.80;;;;;;5072501;28;20366;-74
2021/04/09 07:35:13;;;;;;;7.22;4.43;;;307.50;1075.20;;;;;;5073619;28;20028;-72
2021/04/09 07:37:54;;;;;;;11.52;4.07;;;307.70;1075.20;;;;;;5070562;28;20057;-74
2021/04/09 07:40:27;;;;;;;18.70;4.72;;;307.80;1049.60;;;;;;5070575;28;20032;-73
2021/04/09 07:42:55;;;;;;;23.30;6.15;;;308.00;1049.60;;;;;;5070517;28;20437;-73
2021/04/09 07:45:22;;;;;;;18.25;5.43;;;332.80;1100.80;;;;;;5073141;28;20043;-72
2021/04/09 07:47:55;;;;;;;11.30;5.57;;;332.90;1075.20;;;;;;5073928;28;20094;-73
2021/04/09 07:50:32;;;;;;;8.57;4.10;;;333.10;1049.60;;;;;;5074253;28;20055;-72
2021/04/09 07:52:57;;;;;;;6.25;4.18;;;333.20;1024.00;;;;;;5074140;28;20028;-72
2021/04/09 07:55:26;;;;;;;8.68;5.88;;;333.30;1024.00;;;;;;5074022;28;20074;-72
2021/04/09 07:57:51;;;;;;;7.32;5.30;;;333.50;998.40;;;;;;5073909;28;20025;-73
2021/04/09 08:00:22;;;;;;;7.75;4.93;;;333.60;998.40;;;;;;5073773;28;20078;-72
2021/04/09 08:02:53;;;;;;;8.27;4.93;;;358.40;998.40;;;;;;5073893;28;20394;-72
2021/04/09 08:05:22;;;;;;;10.30;4.28;;;358.40;947.20;;;;;;5073783;28;20490;-73
2021/04/09 08:07:47;;;;;;;8.10;3.95;;;358.50;947.20;;;;;;5073675;28;20112;-73
2021/04/09 08:10:15;;;;;;;14.95;4.60;;;358.60;947.20;;;;;;5073822;28;20156;-73
2021/04/09 08:12:42;;;;;;;8.18;4.55;;;358.70;947.20;;;;;;5075689;28;20417;-73
2021/04/09 08:15:13;;;;;;;11.65;4.78;;;358.80;921.60;;;;;;5075979;28;20029;-72
2021/04/09 08:17:39;;;;;;;6.78;4.28;;;358.90;896.00;;;;;;5075559;28;20028;-73
2021/04/09 08:20:13;;;;;;;7.20;4.10;;;358.90;896.00;;;;;;5075612;28;20032;-73
2021/04/09 08:22:40;;;;;;;9.57;4.35;;;359.00;896.00;;;;;;5075582;28;20025;-73
2021/04/09 08:25:07;;;;;;;12.00;5.70;;;359.10;870.40;;;;;;5075381;28;20466;-73
2021/04/09 08:27:35;;;;;;;14.10;5.07;;;359.20;870.40;;;;;;5075173;28;20463;-73
2021/04/09 08:30:02;;;;;;;10.63;4.93;;;359.20;870.40;;;;;;5075377;28;20026;-73
2021/04/09 08:32:27;;;;;;;7.82;4.57;;;359.30;844.80;;;;;;5075729;28;20033;-73
2021/04/09 08:34:54;;;;;;;9.50;5.07;;;384.00;844.80;;;;;;5074898;28;20017;-73
2021/04/09 08:37:21;;;;;;;8.93;4.28;;;384.10;870.40;;;;;;5044282;28;894967;-73
2021/04/09 08:39:46;;;;;;;11.77;4.95;;;384.20;844.80;;;;;;5076380;28;20482;-73
2021/04/09 08:42:15;;;;;;;6.95;4.50;;;384.20;844.80;;;;;;5076004;28;20042;-73
2021/04/09 08:44:41;;;;;;;8.98;4.45;;;384.30;844.80;;;;;;5076387;28;20036;-73
2021/04/09 08:47:09;;;;;;;10.32;4.60;;;384.40;844.80;;;;;;5076351;28;20074;-73
2021/04/09 08:49:34;;;;;;;7.78;5.18;;;384.50;819.20;;;;;;5075953;28;20056;-72
2021/04/09 08:52:02;;;;;;;7.38;3.65;;;384.60;793.60;;;;;;5076429;28;20105;-73
2021/04/09 08:54:30;;;;;;;10.60;4.63;;;384.70;793.60;;;;;;5076094;28;20028;-73
2021/04/09 08:56:58;;;;;;;7.53;4.32;;;384.80;793.60;;;;;;5076166;28;20038;-73
2021/04/09 08:59:47;;;;;;;15.30;5.53;;;384.80;768.00;;;;;;5076417;28;20016;-73
2021/04/09 09:02:22;;;;;;;8.82;5.85;;;409.60;819.20;;;;;;5076357;28;20025;-73
2021/04/09 09:04:59;;;;;;;10.23;5.53;;;409.70;793.60;;;;;;5076018;28;20096;-73
2021/04/09 09:07:43;;;;;;;8.98;4.65;;;409.70;793.60;;;;;;5075965;28;20047;-73
2021/04/09 09:10:27;;;;;;;8.50;4.28;;;409.80;793.60;;;;;;5074947;28;20028;-73
2021/04/09 09:13:05;;;;;;;10.65;4.50;;;409.90;768.00;;;;;;5076055;28;20021;-73
2021/04/09 09:15:43;;;;;;;6.45;4.25;;;410.00;768.00;;;;;;5074519;28;20029;-73
2021/04/09 09:18:24;;;;;;;8.23;4.70;;;410.10;768.00;;;;;;5075801;28;20078;-73
2021/04/09 09:20:59;;;;;;;9.40;4.63;;;410.20;768.00;;;;;;5075944;28;20029;-73
2021/04/09 09:23:24;;;;;;;;;;;410.30;768.00;;;;;;5076309;28;20070;-73
2021/04/09 09:25:50;;;;;;;12.23;6.75;;;410.30;742.40;;;;;;5075674;28;19912;-74
2021/04/09 09:28:17;;;;;;;19.30;6.60;;;410.30;742.40;;;;;;5075531;28;20122;-73
2021/04/09 09:30:43;;;;;;;12.55;4.90;;;410.40;768.00;;;;;;5075619;28;20024;-73
2021/04/09 09:33:28;;;;;;;11.02;6.00;;;410.50;768.00;;;;;;5075377;28;20021;-73
2021/04/09 09:36:06;;;;;;;13.68;6.93;;;435.20;768.00;;;;;;5075456;28;20094;-73
2021/04/09 09:38:54;;;;;;;10.85;6.70;;;435.40;768.00;;;;;;5075233;28;20016;-72
2021/04/09 09:41:33;;;;;;;17.38;7.07;;;435.40;742.40;;;;;;5075587;28;20020;-73
2021/04/09 09:44:00;;;;;;;14.93;8.07;;;435.40;742.40;;;;;;5075519;28;20029;-72
2021/04/09 09:46:54;;;;;;;19.55;8.18;;;435.60;768.00;;;;;;5075273;28;20147;-73
2021/04/09 09:49:21;;;;;;;28.92;8.27;;;435.70;716.80;;;;;;5075496;28;20111;-74
2021/04/09 09:51:47;;;;;;;48.80;10.18;;;435.80;742.40;;;;;;5075248;28;20036;-74
2021/04/09 09:54:29;;;;;;;43.08;9.15;;;435.80;716.80;;;;;;5075431;28;20505;-72
2021/04/09 09:56:57;;;;;;;46.30;11.55;;;435.90;768.00;;;;;;5074857;28;20124;-75
2021/04/09 09:59:26;;;;;;;56.42;9.15;;;435.90;793.60;;;;;;5075170;28;20165;-72
2021/04/09 10:01:56;;;;;;;204.20;19.77;;;436.00;793.60;;;;;;5073737;28;20036;-70
2021/04/09 10:04:22;;;;;;;73.80;10.50;;;436.00;844.80;;;;;;5074984;28;20106;-69
2021/04/09 10:06:51;;;;;;;31.13;6.72;;;436.00;793.60;;;;;;5074015;28;20494;-68
2021/04/09 10:09:31;;;;;;;32.25;8.07;;;435.90;793.60;;;;;;5074824;28;20146;-67
2021/04/09 10:11:58;;;;;;;18.13;6.30;;;435.90;819.20;;;;;;5074548;28;20029;-68
2021/04/09 10:14:27;;;;;;;15.07;6.95;;;435.90;768.00;;;;;;5074907;28;20017;-67
2021/04/09 10:16:54;;;;;;;14.20;7.43;;;435.90;819.20;;;;;;5074636;28;20053;-67
2021/04/09 10:19:20;;;;;;;14.68;6.45;;;435.80;870.40;;;;;;5074690;28;20028;-69
2021/04/09 10:21:46;;;;;;;10.93;6.28;;;435.80;896.00;;;;;;5074884;28;20035;-69
2021/04/09 10:24:18;;;;;;;9.07;5.95;;;435.80;921.60;;;;;;5074520;28;20023;-70
2021/04/09 10:26:55;;;;;;;11.95;6.10;;;435.90;921.60;;;;;;5074385;28;20115;-69
2021/04/09 10:29:26;;;;;;;10.75;5.90;;;435.80;870.40;;;;;;5074776;28;20489;-69
2021/04/09 10:31:56;;;;;;;16.10;5.72;;;435.80;844.80;;;;;;5074700;28;20406;-68
2021/04/09 10:34:27;;;;;;;8.48;5.15;;;435.80;793.60;;;;;;5074459;28;20031;-69
2021/04/09 10:36:54;;;;;;;10.05;6.03;;;435.80;870.40;;;;;;5074184;28;20053;-68
2021/04/09 10:39:22;;;;;;;10.98;5.20;;;435.70;819.20;;;;;;5074392;28;20391;-68
2021/04/09 10:41:50;;;;;;;12.35;6.10;;;435.80;896.00;;;;;;5074332;28;20402;-69
2021/04/09 10:44:21;;;;;;;12.55;5.47;;;435.90;896.00;;;;;;5074308;28;20112;-68
2021/04/09 10:46:50;;;;;;;14.40;5.22;;;435.90;870.40;;;;;;5074201;28;20028;-66
2021/04/09 10:49:18;;;;;;;15.95;5.80;;;435.90;844.80;;;;;;5074167;28;20043;-69
2021/04/09 10:51:47;;;;;;;8.52;5.57;;;435.90;819.20;;;;;;5074186;28;20028;-67
2021/04/09 10:54:33;;;;;;;9.23;5.13;;;435.90;870.40;;;;;;5074066;28;20028;-66
2021/04/09 10:57:07;;;;;;;10.43;5.00;;;435.90;768.00;;;;;;5073951;28;20470;-67
2021/04/09 10:59:39;;;;;;;8.15;5.13;;;435.90;819.20;;;;;;5074150;28;20036;-69
2021/04/09 11:02:07;;;;;;;26.08;5.93;;;435.90;844.80;;;;;;5074046;28;20474;-69
2021/04/09 11:04:34;;;;;;;18.55;5.38;;;435.90;819.20;;;;;;5074007;28;20020;-66
2021/04/09 11:07:02;;;;;;;12.40;5.35;;;435.80;870.40;;;;;;5073884;28;20036;-68
2021/04/09 11:09:48;;;;;;;8.50;4.53;;;435.90;870.40;;;;;;5074120;28;20032;-68
2021/04/09 11:12:27;;;;;;;9.40;4.97;;;435.90;844.80;;;;;;5073794;28;20058;-68
2021/04/09 11:15:10;;;;;;;11.05;4.78;;;436.00;896.00;;;;;;5073852;28;20052;-68
2021/04/09 11:17:37;;;;;;;6.20;4.60;;;436.00;819.20;;;;;;5073461;28;20077;-64
2021/04/09 11:20:47;;;;;;;20.30;5.43;;;436.00;793.60;;;;;;5074151;28;20048;-72
2021/04/09 11:23:15;;;;;;;20.63;5.82;;;436.00;844.80;;;;;;5071456;28;20441;-73
2021/04/09 11:25:46;;;;;;;17.58;5.60;;;436.00;742.40;;;;;;5071481;28;20461;-69
2021/04/09 11:28:28;;;;;;;29.80;6.05;;;436.00;768.00;;;;;;5071567;28;20032;-69
2021/04/09 11:31:03;;;;;;;84.63;7.45;;;436.10;742.40;;;;;;5054524;28;20041;-71
2021/04/09 11:33:33;;;;;;;1999.90;209.48;;;460.80;716.80;;;;;;5071714;28;20023;-72
2021/04/09 11:36:20;;;;;;;1966.40;228.57;;;461.00;716.80;;;;;;5054597;28;20055;-72
2021/04/09 11:38:47;;;;;;;635.78;61.97;;;461.00;716.80;;;;;;5071544;28;20038;-72
2021/04/09 11:41:28;;;;;;;208.18;21.17;;;461.00;691.20;;;;;;5053714;28;20037;-72
2021/04/09 11:43:54;;;;;;;59.00;7.13;;;461.20;665.60;;;;;;5071383;28;20435;-73
2021/04/09 11:46:36;;;;;;;19.88;6.25;;;461.20;665.60;;;;;;5071337;28;20059;-72
2021/04/09 11:49:04;;;;;;;17.67;5.55;;;461.20;640.00;;;;;;5071296;28;20086;-73
2021/04/09 11:51:30;;;;;;;12.55;4.93;;;461.20;665.60;;;;;;5071471;28;20037;-73
2021/04/09 11:53:59;;;;;;;13.40;6.00;;;461.30;665.60;;;;;;5071507;28;20025;-74
2021/04/09 11:56:48;;;;;;;13.93;6.15;;;461.30;640.00;;;;;;5071666;28;20078;-75
2021/04/09 11:59:16;;;;;;;9.30;6.55;;;461.30;640.00;;;;;;5073536;28;20405;-73
2021/04/09 12:01:44;;;;;;;7.03;5.32;;;461.40;614.40;;;;;;5073278;28;20024;-74
2021/04/09 12:04:35;;;;;;;12.05;4.78;;;461.50;665.60;;;;;;5073414;28;20025;-75
2021/04/09 12:07:02;;;;;;;9.45;5.72;;;461.50;640.00;;;;;;5073273;28;20500;-73
2021/04/09 12:09:28;;;;;;;7.50;4.35;;;461.60;640.00;;;;;;5073337;28;20462;-72
2021/04/09 12:11:54;;;;;;;9.63;5.65;;;461.60;614.40;;;;;;5073286;28;20028;-73
2021/04/09 12:14:48;;;;;;;11.18;6.28;;;461.60;614.40;;;;;;5073145;28;20028;-72
2021/04/09 12:17:15;;;;;;;10.77;5.80;;;461.60;588.80;;;;;;5073407;28;20031;-73